createdAt,value
2023-02-05T00:01:50.031Z,6.40
2023-02-05T00:04:18.646Z,6.40
2023-02-05T00:06:47.008Z,6.40
2023-02-05T00:09:15.070Z,6.40
2023-02-05T00:11:44.453Z,6.50
2023-02-05T00:14:12.499Z,6.50
2023-02-05T00:16:40.635Z,6.40
2023-02-05T00:19:08.684Z,6.50
2023-02-05T00:21:36.724Z,6.50
2023-02-05T00:24:04.967Z,6.40
2023-02-05T00:26:33.223Z,6.40
2023-02-05T00:29:02.738Z,6.40
2023-02-05T00:31:30.916Z,6.40
2023-02-05T00:33:59.582Z,6.60
2023-02-05T00:36:27.908Z,6.70
2023-02-05T00:38:55.991Z,6.60
2023-02-05T00:41:24.034Z,6.40
2023-02-05T00:43:52.044Z,6.50
2023-02-05T00:46:21.643Z,6.50
2023-02-05T00:48:49.718Z,6.40
2023-02-05T00:51:17.772Z,6.40
2023-02-05T00:53:45.776Z,6.40
2023-02-05T00:56:13.820Z,6.40
2023-02-05T00:58:47.307Z,6.40
2023-02-05T01:01:15.770Z,6.30
2023-02-05T01:03:45.439Z,6.30
2023-02-05T01:06:13.680Z,6.30
2023-02-05T01:08:41.943Z,6.20
2023-02-05T01:11:11.398Z,6.30
2023-02-05T01:13:40.497Z,6.30
2023-02-05T01:16:10.418Z,6.30
2023-02-05T01:18:38.759Z,6.40
2023-02-05T01:21:08.719Z,6.50
2023-02-05T01:23:37.090Z,6.50
2023-02-05T01:26:05.397Z,6.50
2023-02-05T01:28:33.617Z,6.40
2023-02-05T01:31:02.176Z,6.40
2023-02-05T01:33:30.573Z,6.40
2023-02-05T01:35:58.802Z,6.50
2023-02-05T01:38:28.502Z,6.60
2023-02-05T01:40:59.928Z,6.60
2023-02-05T01:43:28.234Z,6.50
2023-02-05T01:46:17.424Z,6.50
2023-02-05T01:48:50.096Z,6.50
2023-02-05T01:51:18.951Z,6.40
2023-02-05T01:53:50.271Z,6.40
2023-02-05T01:56:22.854Z,6.40
2023-02-05T01:58:54.612Z,6.60
2023-02-05T02:01:23.196Z,6.60
2023-02-05T02:03:52.293Z,6.60
2023-02-05T02:06:20.347Z,6.50
2023-02-05T02:08:49.909Z,6.50
2023-02-05T02:11:22.089Z,6.50
2023-02-05T02:13:53.240Z,6.50
2023-02-05T02:16:22.181Z,6.50
2023-02-05T02:18:50.709Z,6.40
2023-02-05T02:21:54.090Z,6.40
2023-02-05T02:24:44.065Z,6.40
2023-02-05T02:27:41.147Z,6.40
2023-02-05T02:30:15.911Z,6.50
2023-02-05T02:32:50.496Z,6.50
2023-02-05T02:35:24.666Z,6.50
2023-02-05T02:37:59.442Z,6.40
2023-02-05T02:40:32.918Z,6.40
2023-02-05T02:43:08.590Z,6.40
2023-02-05T02:45:42.902Z,6.30
2023-02-05T02:48:12.719Z,6.40
2023-02-05T02:50:46.815Z,6.40
2023-02-05T02:53:18.775Z,6.50
2023-02-05T02:55:49.049Z,6.40
2023-02-05T02:58:23.693Z,6.50
2023-02-05T03:00:55.222Z,6.40
2023-02-05T03:03:25.648Z,6.40
2023-02-05T03:05:57.280Z,6.50
2023-02-05T03:08:29.761Z,6.60
2023-02-05T03:11:02.595Z,6.60
2023-02-05T03:13:33.186Z,6.50
2023-02-05T03:16:03.950Z,6.50
2023-02-05T03:18:32.573Z,6.60
2023-02-05T03:21:04.605Z,6.60
2023-02-05T03:23:33.110Z,6.60
2023-02-05T03:26:01.401Z,6.50
2023-02-05T03:28:43.499Z,6.60
2023-02-05T03:31:19.701Z,6.50
2023-02-05T03:33:56.720Z,6.50
2023-02-05T03:36:30.951Z,6.50
2023-02-05T03:39:13.099Z,6.50
2023-02-05T03:41:57.314Z,6.50
2023-02-05T03:45:02.941Z,6.60
2023-02-05T03:47:45.329Z,6.70
2023-02-05T03:50:20.435Z,6.60
2023-02-05T03:52:52.683Z,6.60
2023-02-05T03:55:24.663Z,6.60
2023-02-05T03:57:58.988Z,6.60
2023-02-05T04:00:29.283Z,6.60
2023-02-05T04:02:57.824Z,6.50
2023-02-05T04:05:30.353Z,6.50
2023-02-05T04:07:59.399Z,6.50
2023-02-05T04:10:32.797Z,6.50
2023-02-05T04:13:02.949Z,6.50
2023-02-05T04:15:33.365Z,6.50
2023-02-05T04:18:04.672Z,6.50
2023-02-05T04:20:32.732Z,6.50
2023-02-05T04:23:02.185Z,6.50
2023-02-05T04:25:33.388Z,6.50
2023-02-05T04:28:02.202Z,6.50
2023-02-05T04:30:33.638Z,6.50
2023-02-05T04:33:02.348Z,6.50
2023-02-05T04:35:30.806Z,6.40
2023-02-05T04:37:59.000Z,6.50
2023-02-05T04:40:27.387Z,6.50
2023-02-05T04:42:55.420Z,6.50
2023-02-05T04:45:23.911Z,6.60
2023-02-05T04:47:53.263Z,6.60
2023-02-05T04:50:21.246Z,6.60
2023-02-05T04:52:49.336Z,6.60
2023-02-05T04:55:17.562Z,6.60
2023-02-05T04:57:45.601Z,6.70
2023-02-05T05:00:15.010Z,6.60
2023-02-05T05:02:43.076Z,6.60
2023-02-05T05:05:12.715Z,6.60
2023-02-05T05:07:40.713Z,6.50
2023-02-05T05:10:09.873Z,6.50
2023-02-05T05:12:38.635Z,6.50
2023-02-05T05:15:08.141Z,6.50
2023-02-05T05:17:36.251Z,6.50
2023-02-05T05:20:04.967Z,6.60
2023-02-05T05:22:34.486Z,6.50
2023-02-05T05:25:02.558Z,6.50
2023-02-05T05:27:30.621Z,6.60
2023-02-05T05:29:58.703Z,6.60
2023-02-05T05:32:26.716Z,6.60
2023-02-05T05:34:57.052Z,6.60
2023-02-05T05:37:25.120Z,6.60
2023-02-05T05:40:12.323Z,6.60
2023-02-05T05:42:57.756Z,6.60
2023-02-05T05:45:26.102Z,6.60
2023-02-05T05:47:54.135Z,6.60
2023-02-05T05:50:22.166Z,6.50
2023-02-05T05:52:50.179Z,6.60
2023-02-05T05:55:19.583Z,6.50
2023-02-05T05:57:47.614Z,6.60
2023-02-05T06:00:16.644Z,6.60
2023-02-05T06:02:44.744Z,6.60
2023-02-05T06:05:12.965Z,6.60
2023-02-05T06:07:41.003Z,6.60
2023-02-05T06:10:09.544Z,6.60
2023-02-05T06:12:38.970Z,6.60
2023-02-05T06:15:08.035Z,6.60
2023-02-05T06:17:36.103Z,6.50
2023-02-05T06:20:04.267Z,6.50
2023-02-05T06:22:32.368Z,6.60
2023-02-05T06:25:00.401Z,6.60
2023-02-05T06:27:28.378Z,6.60
2023-02-05T06:29:57.711Z,6.70
2023-02-05T06:32:26.879Z,6.70
2023-02-05T06:34:55.059Z,6.70
2023-02-05T06:37:34.168Z,6.80
2023-02-05T06:40:15.572Z,6.80
2023-02-05T06:42:43.872Z,6.80
2023-02-05T06:45:13.361Z,6.70
2023-02-05T06:47:41.379Z,6.70
2023-02-05T06:50:10.385Z,6.70
2023-02-05T06:52:38.480Z,6.60
2023-02-05T06:55:07.430Z,6.60
2023-02-05T06:57:35.805Z,6.60
2023-02-05T07:00:04.523Z,6.60
2023-02-05T07:02:34.282Z,6.60
2023-02-05T07:05:02.302Z,6.50
2023-02-05T07:07:30.371Z,6.60
2023-02-05T07:09:58.371Z,6.70
2023-02-05T07:12:26.857Z,6.70
2023-02-05T07:14:54.873Z,6.70
2023-02-05T07:17:22.964Z,6.70
2023-02-05T07:19:52.391Z,6.50
2023-02-05T07:22:20.436Z,6.60
2023-02-05T07:24:48.507Z,6.60
2023-02-05T07:27:16.603Z,6.60
2023-02-05T07:29:44.842Z,6.60
2023-02-05T07:32:12.943Z,6.60
2023-02-05T07:34:40.984Z,6.70
2023-02-05T07:37:12.302Z,6.60
2023-02-05T07:39:40.396Z,6.60
2023-02-05T07:42:08.427Z,6.60
2023-02-05T07:44:44.626Z,6.70
2023-02-05T07:47:12.647Z,6.70
2023-02-05T07:49:40.694Z,6.60
2023-02-05T07:52:10.055Z,6.60
2023-02-05T07:54:38.177Z,6.60
2023-02-05T07:57:07.090Z,6.60
2023-02-05T07:59:35.307Z,6.60
2023-02-05T08:02:03.404Z,6.60
2023-02-05T08:04:31.460Z,6.60
2023-02-05T08:06:59.547Z,6.60
2023-02-05T08:09:28.930Z,6.60
2023-02-05T08:11:56.931Z,6.60
2023-02-05T08:14:24.942Z,6.60
2023-02-05T08:16:52.933Z,6.60
2023-02-05T08:19:20.950Z,6.70
2023-02-05T08:21:49.048Z,6.60
2023-02-05T08:24:17.086Z,6.60
2023-02-05T08:26:46.544Z,6.60
2023-02-05T08:29:14.709Z,6.60
2023-02-05T08:31:42.760Z,6.60
2023-02-05T08:34:10.799Z,6.70
2023-02-05T08:36:38.860Z,6.70
2023-02-05T08:39:07.224Z,6.70
2023-02-05T08:41:35.302Z,6.70
2023-02-05T08:44:05.063Z,6.70
2023-02-05T08:46:48.512Z,6.60
2023-02-05T08:49:17.984Z,6.60
2023-02-05T08:51:45.991Z,6.70
2023-02-05T08:54:15.176Z,6.70
2023-02-05T08:56:44.763Z,6.70
2023-02-05T08:59:14.640Z,6.70
2023-02-05T09:01:43.490Z,6.70
2023-02-05T09:04:13.846Z,6.70
2023-02-05T09:06:42.618Z,6.60
2023-02-05T09:09:10.944Z,6.60
2023-02-05T09:11:39.113Z,6.60
2023-02-05T09:14:07.976Z,6.60
2023-02-05T09:16:37.449Z,6.60
2023-02-05T09:19:05.857Z,6.60
2023-02-05T09:21:33.971Z,6.70
2023-02-05T09:24:01.994Z,6.80
2023-02-05T09:26:30.002Z,6.80
2023-02-05T09:28:58.858Z,6.70
2023-02-05T09:31:26.968Z,6.80
2023-02-05T09:33:57.256Z,6.80
2023-02-05T09:36:25.574Z,6.70
2023-02-05T09:39:11.823Z,6.70
2023-02-05T09:41:48.980Z,6.70
2023-02-05T09:44:26.456Z,6.80
2023-02-05T09:47:02.548Z,6.80
2023-02-05T09:49:36.129Z,6.80
2023-02-05T09:52:09.406Z,6.90
2023-02-05T09:54:43.357Z,6.80
2023-02-05T09:57:17.229Z,6.80
2023-02-05T09:59:47.644Z,6.90
2023-02-05T10:02:25.782Z,6.90
2023-02-05T10:04:55.998Z,6.90
2023-02-05T10:07:30.786Z,6.90
2023-02-05T10:10:24.425Z,6.90
2023-02-05T10:13:25.117Z,6.80
2023-02-05T10:16:16.277Z,6.90
2023-02-05T10:18:55.732Z,6.80
2023-02-05T10:21:46.077Z,6.80
2023-02-05T10:24:35.694Z,6.80
2023-02-05T10:27:12.471Z,6.90
2023-02-05T10:29:49.468Z,6.90
2023-02-05T10:32:22.791Z,6.90
2023-02-05T10:35:03.966Z,6.90
2023-02-05T10:37:42.757Z,7.00
2023-02-05T10:40:16.303Z,6.90
2023-02-05T10:42:48.852Z,6.90
2023-02-05T10:45:21.115Z,6.90
2023-02-05T10:48:04.403Z,6.90
2023-02-05T10:50:46.102Z,6.90
2023-02-05T10:53:22.563Z,6.90
2023-02-05T10:55:50.885Z,7.00
2023-02-05T10:58:36.162Z,7.00
2023-02-05T11:01:05.490Z,6.90
2023-02-05T11:03:34.538Z,7.00
2023-02-05T11:06:05.126Z,6.90
2023-02-05T11:08:37.311Z,6.90
2023-02-05T11:11:06.817Z,6.90
2023-02-05T11:13:40.688Z,6.90
2023-02-05T11:16:10.916Z,6.90
2023-02-05T11:18:42.130Z,6.90
2023-02-05T11:21:11.125Z,6.90
2023-02-05T11:23:42.979Z,6.90
2023-02-05T11:26:18.546Z,6.90
2023-02-05T11:28:47.008Z,7.00
2023-02-05T11:31:27.076Z,6.90
2023-02-05T11:34:12.341Z,7.00
2023-02-05T11:36:49.392Z,7.00
2023-02-05T11:39:35.955Z,7.00
2023-02-05T11:42:10.541Z,7.00
2023-02-05T11:44:48.283Z,7.00
2023-02-05T11:47:24.767Z,7.10
2023-02-05T11:49:53.491Z,7.00
2023-02-05T11:52:27.956Z,7.00
2023-02-05T11:54:57.796Z,7.00
2023-02-05T11:57:35.230Z,7.10
2023-02-05T12:00:20.398Z,7.10
2023-02-05T12:02:51.853Z,7.10
2023-02-05T12:05:22.628Z,7.10
2023-02-05T12:07:56.393Z,7.10
2023-02-05T12:10:33.458Z,7.10
2023-02-05T12:13:10.753Z,7.10
2023-02-05T12:15:47.067Z,7.20
2023-02-05T12:18:27.404Z,7.10
2023-02-05T12:21:12.830Z,7.10
2023-02-05T12:24:05.991Z,7.10
2023-02-05T12:26:39.442Z,7.10
2023-02-05T12:29:17.428Z,7.10
2023-02-05T12:31:57.780Z,7.10
2023-02-05T12:34:33.272Z,7.20
2023-02-05T12:37:16.325Z,7.20
2023-02-05T12:39:47.703Z,7.20
2023-02-05T12:42:30.513Z,7.20
2023-02-05T12:45:14.343Z,7.20
2023-02-05T12:47:51.728Z,7.20
2023-02-05T12:50:43.713Z,7.20
2023-02-05T12:53:24.255Z,7.20
2023-02-05T12:56:07.991Z,7.20
2023-02-05T12:58:42.684Z,7.30
2023-02-05T13:01:17.219Z,7.30
2023-02-05T13:03:50.952Z,7.30
2023-02-05T13:06:24.262Z,7.20
2023-02-05T13:08:56.600Z,7.20
2023-02-05T13:11:30.132Z,7.20
2023-02-05T13:14:04.260Z,7.20
2023-02-05T13:16:41.096Z,7.30
2023-02-05T13:19:22.591Z,7.30
2023-02-05T13:22:11.202Z,7.40
2023-02-05T13:25:01.692Z,7.40
2023-02-05T13:27:51.536Z,7.40
2023-02-05T13:30:24.325Z,7.40
2023-02-05T13:32:58.223Z,7.30
2023-02-05T13:35:27.537Z,7.30
2023-02-05T13:38:14.102Z,7.30
2023-02-05T13:40:57.060Z,7.30
2023-02-05T13:43:53.281Z,7.30
2023-02-05T13:46:50.603Z,7.40
2023-02-05T13:49:59.070Z,7.40
2023-02-05T13:52:42.257Z,7.30
2023-02-05T13:55:33.886Z,7.30
2023-02-05T13:58:20.331Z,7.30
2023-02-05T14:00:55.766Z,7.30
2023-02-05T14:03:34.925Z,7.30
2023-02-05T14:06:21.655Z,7.30
2023-02-05T14:08:52.495Z,7.20
2023-02-05T14:11:20.520Z,7.30
2023-02-05T14:14:27.214Z,7.20
2023-02-05T14:16:55.996Z,7.30
2023-02-05T14:19:27.734Z,7.30
2023-02-05T14:22:04.062Z,7.30
2023-02-05T14:24:49.728Z,7.30
2023-02-05T14:27:46.651Z,7.30
2023-02-05T14:30:38.309Z,7.30
2023-02-05T14:33:31.949Z,7.30
2023-02-05T14:36:31.271Z,7.30
2023-02-05T14:39:02.357Z,7.30
2023-02-05T14:41:35.925Z,7.30
2023-02-05T14:44:06.883Z,7.40
2023-02-05T14:46:39.849Z,7.30
2023-02-05T14:49:21.126Z,7.30
2023-02-05T14:51:59.246Z,7.30
2023-02-05T14:54:31.224Z,7.30
2023-02-05T14:57:13.833Z,7.30
2023-02-05T14:59:49.471Z,7.30
2023-02-05T15:02:55.251Z,7.30
2023-02-05T15:05:31.459Z,7.30
2023-02-05T15:08:10.494Z,7.30
2023-02-05T15:10:47.496Z,7.30
2023-02-05T15:13:17.763Z,7.20
2023-02-05T15:16:24.693Z,7.30
2023-02-05T15:18:56.029Z,7.30
2023-02-05T15:21:29.665Z,7.30
2023-02-05T15:24:02.344Z,7.30
2023-02-05T15:26:37.603Z,7.30
2023-02-05T15:29:08.718Z,7.30
2023-02-05T15:31:45.537Z,7.30
2023-02-05T15:34:27.730Z,7.30
2023-02-05T15:37:01.592Z,7.30
2023-02-05T15:39:35.940Z,7.30
2023-02-05T15:42:06.211Z,7.30
2023-02-05T15:44:35.922Z,7.30
2023-02-05T15:47:06.312Z,7.30
2023-02-05T15:49:38.764Z,7.30
2023-02-05T15:52:07.513Z,7.30
2023-02-05T15:54:38.788Z,7.20
2023-02-05T15:57:08.669Z,7.30
2023-02-05T15:59:36.766Z,7.20
2023-02-05T16:02:09.040Z,7.30
2023-02-05T16:04:39.000Z,7.20
2023-02-05T16:07:21.891Z,7.20
2023-02-05T16:09:54.030Z,7.20
2023-02-05T16:12:22.234Z,7.20
2023-02-05T16:14:59.633Z,7.30
2023-02-05T16:17:31.913Z,7.30
2023-02-05T16:20:07.774Z,7.30
2023-02-05T16:22:40.558Z,7.30
2023-02-05T16:25:27.892Z,7.30
2023-02-05T16:27:58.605Z,7.20
2023-02-05T16:30:33.023Z,7.20
2023-02-05T16:33:05.210Z,7.20
2023-02-05T16:35:36.724Z,7.20
2023-02-05T16:38:09.107Z,7.30
2023-02-05T16:40:43.058Z,7.30
2023-02-05T16:43:21.760Z,7.20
2023-02-05T16:46:24.863Z,7.30
2023-02-05T16:48:55.326Z,7.30
2023-02-05T16:51:55.297Z,7.30
2023-02-05T16:54:32.675Z,7.30
2023-02-05T16:57:05.974Z,7.20
2023-02-05T16:59:39.433Z,7.20
2023-02-05T17:02:14.519Z,7.20
2023-02-05T17:04:42.668Z,7.20
2023-02-05T17:07:19.161Z,7.30
2023-02-05T17:09:47.460Z,7.30
2023-02-05T17:12:40.769Z,7.30
2023-02-05T17:15:28.206Z,7.30
2023-02-05T17:17:58.281Z,7.30
2023-02-05T17:20:28.740Z,7.30
2023-02-05T17:23:10.744Z,7.30
2023-02-05T17:25:40.613Z,7.30
2023-02-05T17:28:15.464Z,7.30
2023-02-05T17:30:45.219Z,7.30
2023-02-05T17:33:17.802Z,7.30
2023-02-05T17:35:45.885Z,7.30
2023-02-05T17:38:14.285Z,7.30
2023-02-05T17:40:42.941Z,7.30
2023-02-05T17:43:12.396Z,7.30
2023-02-05T17:45:43.214Z,7.30
2023-02-05T17:48:11.514Z,7.30
2023-02-05T17:50:40.116Z,7.30
2023-02-05T17:53:08.224Z,7.30
2023-02-05T17:55:36.228Z,7.30
2023-02-05T17:58:04.219Z,7.30
2023-02-05T18:00:33.830Z,7.40
2023-02-05T18:03:02.092Z,7.30
2023-02-05T18:05:30.117Z,7.30
2023-02-05T18:07:59.612Z,7.30
2023-02-05T18:10:29.267Z,7.30
2023-02-05T18:12:57.454Z,7.40
2023-02-05T18:15:26.607Z,7.30
2023-02-05T18:17:55.931Z,7.30
2023-02-05T18:20:24.002Z,7.30
2023-02-05T18:22:52.023Z,7.30
2023-02-05T18:25:20.153Z,7.30
2023-02-05T18:27:48.847Z,7.30
2023-02-05T18:30:17.258Z,7.30
2023-02-05T18:32:45.292Z,7.30
2023-02-05T18:35:15.018Z,7.30
2023-02-05T18:37:43.744Z,7.30
2023-02-05T18:40:13.608Z,7.30
2023-02-05T18:42:42.156Z,7.30
2023-02-05T18:45:11.062Z,7.30
2023-02-05T18:47:44.725Z,7.30
2023-02-05T18:50:14.053Z,7.30
2023-02-05T18:52:42.063Z,7.30
2023-02-05T18:55:12.359Z,7.30
2023-02-05T18:57:40.419Z,7.30
2023-02-05T19:00:09.898Z,7.30
2023-02-05T19:02:39.935Z,7.40
2023-02-05T19:05:08.769Z,7.30
2023-02-05T19:07:39.020Z,7.30
2023-02-05T19:10:07.479Z,7.30
2023-02-05T19:12:35.476Z,7.30
2023-02-05T19:15:03.487Z,7.30
2023-02-05T19:17:31.539Z,7.30
2023-02-05T19:19:59.547Z,7.30
2023-02-05T19:22:27.725Z,7.30
2023-02-05T19:24:57.584Z,7.30
2023-02-05T19:27:25.565Z,7.30
2023-02-05T19:29:53.591Z,7.30
2023-02-05T19:32:21.596Z,7.30
2023-02-05T19:34:50.185Z,7.30
2023-02-05T19:37:18.721Z,7.30
2023-02-05T19:39:46.830Z,7.30
2023-02-05T19:42:16.223Z,7.30
2023-02-05T19:44:44.254Z,7.30
2023-02-05T19:47:13.222Z,7.30
2023-02-05T19:49:41.293Z,7.30
2023-02-05T19:52:09.548Z,7.30
2023-02-05T19:54:37.630Z,7.30
2023-02-05T19:57:05.734Z,7.30
2023-02-05T19:59:35.105Z,7.30
2023-02-05T20:02:04.197Z,7.30
2023-02-05T20:04:32.304Z,7.30
2023-02-05T20:07:01.271Z,7.30
2023-02-05T20:09:31.812Z,7.30
2023-02-05T20:11:59.839Z,7.30
2023-02-05T20:14:28.436Z,7.30
2023-02-05T20:16:57.764Z,7.30
2023-02-05T20:19:25.781Z,7.40
2023-02-05T20:21:53.829Z,7.40
2023-02-05T20:24:21.889Z,7.30
2023-02-05T20:26:50.044Z,7.30
2023-02-05T20:29:36.041Z,7.30
2023-02-05T20:32:06.213Z,7.40
2023-02-05T20:34:36.133Z,7.40
2023-02-05T20:37:06.780Z,7.40
2023-02-05T20:39:39.533Z,7.40
2023-02-05T20:42:07.748Z,7.40
2023-02-05T20:44:36.959Z,7.40
2023-02-05T20:47:07.422Z,7.40
2023-02-05T20:49:36.312Z,7.40
2023-02-05T20:52:04.748Z,7.40
2023-02-05T20:54:32.871Z,7.30
2023-02-05T20:57:00.904Z,7.30
2023-02-05T20:59:31.425Z,7.30
2023-02-05T21:01:59.757Z,7.30
2023-02-05T21:04:29.549Z,7.30
2023-02-05T21:06:58.298Z,7.30
2023-02-05T21:09:26.402Z,7.30
2023-02-05T21:11:55.364Z,7.20
2023-02-05T21:14:23.982Z,7.20
2023-02-05T21:16:52.069Z,7.20
2023-02-05T21:19:20.298Z,7.20
2023-02-05T21:21:51.066Z,7.20
2023-02-05T21:24:20.631Z,7.20
2023-02-05T21:26:49.822Z,7.20
2023-02-05T21:29:19.798Z,7.20
2023-02-05T21:31:50.094Z,7.20
2023-02-05T21:34:21.702Z,7.10
2023-02-05T21:36:51.443Z,7.10
2023-02-05T21:39:20.258Z,7.10
2023-02-05T21:41:50.503Z,7.10
2023-02-05T21:44:18.665Z,7.00
2023-02-05T21:46:46.808Z,7.10
2023-02-05T21:49:14.941Z,7.10
2023-02-05T21:51:43.305Z,7.10
2023-02-05T21:54:12.951Z,7.20
2023-02-05T21:56:43.020Z,7.20
2023-02-05T21:59:11.925Z,7.20
2023-02-05T22:01:41.944Z,7.10
2023-02-05T22:04:12.886Z,7.10
2023-02-05T22:06:41.539Z,7.10
2023-02-05T22:09:12.735Z,7.10
2023-02-05T22:11:41.396Z,7.20
2023-02-05T22:14:10.107Z,7.20
2023-02-05T22:16:39.387Z,7.20
2023-02-05T22:19:07.949Z,7.10
2023-02-05T22:21:38.112Z,7.10
2023-02-05T22:24:07.373Z,7.10
2023-02-05T22:26:38.733Z,7.10
2023-02-05T22:29:08.448Z,7.20
2023-02-05T22:31:37.015Z,7.20
2023-02-05T22:34:05.827Z,7.20
2023-02-05T22:36:35.819Z,7.20
2023-02-05T22:39:06.300Z,7.20
2023-02-05T22:41:37.876Z,7.10
2023-02-05T22:44:07.363Z,7.10
2023-02-05T22:46:39.207Z,7.20
2023-02-05T22:49:07.510Z,7.10
2023-02-05T22:51:37.694Z,7.20
2023-02-05T22:54:06.775Z,7.20
2023-02-05T22:56:34.897Z,7.20
2023-02-05T22:59:04.290Z,7.20
2023-02-05T23:01:34.312Z,7.20
2023-02-05T23:04:04.335Z,7.20
2023-02-05T23:06:34.419Z,7.10
2023-02-05T23:09:05.762Z,7.10
2023-02-05T23:11:34.933Z,7.10
2023-02-05T23:14:06.783Z,7.10
2023-02-05T23:16:37.339Z,7.10
2023-02-05T23:19:07.448Z,7.00
2023-02-05T23:21:36.776Z,7.10
2023-02-05T23:24:05.492Z,7.10
2023-02-05T23:26:34.875Z,7.00
2023-02-05T23:29:04.207Z,7.00
2023-02-05T23:31:32.234Z,7.00
2023-02-05T23:34:00.525Z,6.90
2023-02-05T23:36:28.570Z,6.90
2023-02-05T23:38:56.656Z,6.90
2023-02-05T23:41:36.974Z,7.00
2023-02-05T23:44:09.302Z,7.00
2023-02-05T23:46:38.255Z,7.00
2023-02-05T23:49:06.873Z,6.90
2023-02-05T23:51:35.418Z,7.00
2023-02-05T23:54:04.197Z,7.00
2023-02-05T23:56:32.659Z,7.00
2023-02-05T23:59:01.218Z,7.00
